createdAt,value
2018-06-29T00:00:07.767Z,8.30
2018-06-29T00:02:36.250Z,8.43
2018-06-29T00:05:05.322Z,9.30
2018-06-29T00:07:33.832Z,8.70
2018-06-29T00:10:02.353Z,9.47
2018-06-29T00:12:30.862Z,9.43
2018-06-29T00:14:59.464Z,9.07
2018-06-29T00:17:27.917Z,9.43
2018-06-29T00:19:56.480Z,10.70
2018-06-29T00:22:24.965Z,9.67
2018-06-29T00:24:53.564Z,10.60
2018-06-29T00:27:22.087Z,9.77
2018-06-29T00:29:50.574Z,10.40
2018-06-29T00:32:19.126Z,10.03
2018-06-29T00:34:47.717Z,10.50
2018-06-29T00:37:16.168Z,10.17
2018-06-29T00:39:44.764Z,9.30
2018-06-29T00:42:13.229Z,11.40
2018-06-29T00:44:42.538Z,11.43
2018-06-29T00:47:11.686Z,11.30
2018-06-29T00:49:40.336Z,11.10
2018-06-29T00:52:08.761Z,11.50
2018-06-29T00:54:37.315Z,10.93
2018-06-29T00:57:06.562Z,11.10
2018-06-29T00:59:35.091Z,11.20
2018-06-29T01:02:03.995Z,11.30
2018-06-29T01:04:32.540Z,11.40
2018-06-29T01:07:01.135Z,10.70
2018-06-29T01:09:29.682Z,11.63
2018-06-29T01:11:58.128Z,11.40
2018-06-29T01:14:26.595Z,11.13
2018-06-29T01:16:55.072Z,11.63
2018-06-29T01:19:23.606Z,10.67
2018-06-29T01:21:51.999Z,12.10
2018-06-29T01:24:20.554Z,10.67
2018-06-29T01:26:49.060Z,9.97
2018-06-29T01:29:17.554Z,9.57
2018-06-29T01:31:46.022Z,9.90
2018-06-29T01:34:14.546Z,9.43
2018-06-29T01:36:43.416Z,10.20
2018-06-29T01:39:11.878Z,11.17
2018-06-29T01:41:40.405Z,9.77
2018-06-29T01:44:08.830Z,10.33
2018-06-29T01:46:37.321Z,10.37
2018-06-29T01:49:05.910Z,9.57
2018-06-29T01:51:34.365Z,10.10
2018-06-29T01:54:02.957Z,10.07
2018-06-29T01:56:31.424Z,10.83
2018-06-29T01:59:00.021Z,10.77
2018-06-29T02:01:28.453Z,10.20
2018-06-29T02:03:57.016Z,10.07
2018-06-29T02:06:26.401Z,10.80
2018-06-29T02:08:54.952Z,11.67
2018-06-29T02:11:23.451Z,11.67
2018-06-29T02:13:52.760Z,10.33
2018-06-29T02:16:22.352Z,10.60
2018-06-29T02:18:50.845Z,10.83
2018-06-29T02:21:19.994Z,10.20
2018-06-29T02:23:48.456Z,10.00
2018-06-29T02:26:17.042Z,10.57
2018-06-29T02:28:45.411Z,12.23
2018-06-29T02:31:15.041Z,11.80
2018-06-29T02:33:43.543Z,10.93
2018-06-29T02:36:12.969Z,10.63
2018-06-29T02:38:41.416Z,11.17
2018-06-29T02:41:11.016Z,10.13
2018-06-29T02:43:39.425Z,10.13
2018-06-29T02:46:08.017Z,11.23
2018-06-29T02:48:36.413Z,11.70
2018-06-29T02:51:04.986Z,10.63
2018-06-29T02:53:33.460Z,10.17
2018-06-29T02:56:02.391Z,10.10
2018-06-29T02:58:30.901Z,10.53
2018-06-29T03:00:59.384Z,10.43
2018-06-29T03:03:27.898Z,10.70
2018-06-29T03:05:56.440Z,10.97
2018-06-29T03:08:24.981Z,11.33
2018-06-29T03:10:54.550Z,10.33
2018-06-29T03:13:23.013Z,12.53
2018-06-29T03:15:51.618Z,12.27
2018-06-29T03:18:20.160Z,11.60
2018-06-29T03:20:50.010Z,11.87
2018-06-29T03:23:18.572Z,12.10
2018-06-29T03:25:47.152Z,12.00
2018-06-29T03:28:15.738Z,11.97
2018-06-29T03:30:45.289Z,12.50
2018-06-29T03:33:13.932Z,12.13
2018-06-29T03:35:43.163Z,12.87
2018-06-29T03:38:12.645Z,11.60
2018-06-29T03:40:42.104Z,12.07
2018-06-29T03:43:10.754Z,11.43
2018-06-29T03:45:39.686Z,11.60
2018-06-29T03:48:08.253Z,11.43
2018-06-29T03:50:37.800Z,12.23
2018-06-29T03:53:06.351Z,11.27
2018-06-29T03:55:34.855Z,11.60
2018-06-29T03:58:03.395Z,13.13
2018-06-29T04:00:32.990Z,12.13
2018-06-29T04:03:01.532Z,13.20
2018-06-29T04:05:30.257Z,11.50
2018-06-29T04:07:58.756Z,12.87
2018-06-29T04:10:28.385Z,11.80
2018-06-29T04:12:56.956Z,12.63
2018-06-29T04:15:25.952Z,12.80
2018-06-29T04:17:54.372Z,13.03
2018-06-29T04:20:23.952Z,12.30
2018-06-29T04:22:52.569Z,12.97
2018-06-29T04:25:21.175Z,12.00
2018-06-29T04:27:49.605Z,12.13
2018-06-29T04:30:18.285Z,13.03
2018-06-29T04:32:46.767Z,12.33
2018-06-29T04:35:15.425Z,13.47
2018-06-29T04:37:43.909Z,13.83
2018-06-29T04:40:12.408Z,13.40
2018-06-29T04:42:40.611Z,13.53
2018-06-29T04:45:09.192Z,13.60
2018-06-29T04:47:37.622Z,13.17
2018-06-29T04:50:06.258Z,11.97
2018-06-29T04:52:34.804Z,12.70
2018-06-29T04:55:03.412Z,11.63
2018-06-29T04:57:31.858Z,13.63
2018-06-29T05:00:00.467Z,12.70
2018-06-29T05:02:29.257Z,12.90
2018-06-29T05:04:57.924Z,12.53
2018-06-29T05:07:26.465Z,12.97
2018-06-29T05:09:55.388Z,13.30
2018-06-29T05:12:23.908Z,13.63
2018-06-29T05:14:53.032Z,13.13
2018-06-29T05:17:21.786Z,12.67
2018-06-29T05:19:50.404Z,13.70
2018-06-29T05:22:19.022Z,12.30
2018-06-29T05:24:47.565Z,12.73
2018-06-29T05:27:16.154Z,12.87
2018-06-29T05:29:44.710Z,13.30
2018-06-29T05:32:13.259Z,12.67
2018-06-29T05:34:41.712Z,12.87
2018-06-29T05:37:10.344Z,11.10
2018-06-29T05:39:38.783Z,11.40
2018-06-29T05:42:07.347Z,11.40
2018-06-29T05:44:35.923Z,10.70
2018-06-29T05:47:04.710Z,12.93
2018-06-29T05:49:33.607Z,13.63
2018-06-29T05:52:02.122Z,13.07
2018-06-29T05:54:30.558Z,13.30
2018-06-29T05:56:59.138Z,13.43
2018-06-29T05:59:27.533Z,13.57
2018-06-29T06:01:56.263Z,12.60
2018-06-29T06:04:24.947Z,13.13
2018-06-29T06:06:53.890Z,13.10
2018-06-29T06:09:22.991Z,13.67
2018-06-29T06:11:51.897Z,14.37
2018-06-29T06:14:20.342Z,13.97
2018-06-29T06:16:49.195Z,13.27
2018-06-29T06:20:31.917Z,13.57
2018-06-29T06:23:11.603Z,13.37
2018-06-29T06:25:40.115Z,12.67
2018-06-29T06:28:08.714Z,13.67
2018-06-29T06:30:37.209Z,12.53
2018-06-29T06:33:05.801Z,13.80
2018-06-29T06:35:34.449Z,13.83
2018-06-29T06:38:03.138Z,13.70
2018-06-29T06:40:31.579Z,13.90
2018-06-29T06:43:00.237Z,13.20
2018-06-29T06:45:29.046Z,13.90
2018-06-29T06:47:57.599Z,13.90
2018-06-29T06:50:26.186Z,13.40
2018-06-29T06:52:54.770Z,13.30
2018-06-29T06:55:23.793Z,13.77
2018-06-29T06:57:53.343Z,13.40
2018-06-29T07:00:21.805Z,13.20
2018-06-29T07:02:50.349Z,13.13
2018-06-29T07:05:18.850Z,13.60
2018-06-29T07:07:47.504Z,13.10
2018-06-29T07:10:16.037Z,15.07
2018-06-29T07:12:44.529Z,13.20
2018-06-29T07:15:13.648Z,12.13
2018-06-29T07:17:42.256Z,12.03
2018-06-29T07:20:10.796Z,12.07
2018-06-29T07:22:39.321Z,11.57
2018-06-29T07:25:07.789Z,11.50
2018-06-29T07:27:36.414Z,11.33
2018-06-29T07:30:06.315Z,11.10
2018-06-29T07:32:35.023Z,11.23
2018-06-29T07:35:03.852Z,11.30
2018-06-29T07:37:32.364Z,10.97
2018-06-29T07:40:00.848Z,11.63
2018-06-29T07:42:29.481Z,10.00
2018-06-29T07:44:57.893Z,10.10
2018-06-29T07:47:27.420Z,10.37
2018-06-29T07:49:55.996Z,10.50
2018-06-29T07:52:24.692Z,10.03
2018-06-29T07:54:53.820Z,11.03
2018-06-29T07:57:23.697Z,11.50
2018-06-29T07:59:52.179Z,10.67
2018-06-29T08:02:22.095Z,10.87
2018-06-29T08:04:50.914Z,10.93
2018-06-29T08:07:19.402Z,11.70
2018-06-29T08:09:47.901Z,10.40
2018-06-29T08:12:16.646Z,10.33
2018-06-29T08:14:45.209Z,9.77
2018-06-29T08:17:13.781Z,11.87
2018-06-29T08:19:42.253Z,10.90
2018-06-29T08:22:11.112Z,11.20
2018-06-29T08:24:51.048Z,11.63
2018-06-29T08:27:19.502Z,10.90
2018-06-29T08:29:49.812Z,11.30
2018-06-29T08:32:18.624Z,11.23
2018-06-29T08:34:47.494Z,11.10
2018-06-29T08:37:15.933Z,11.00
2018-06-29T08:39:44.496Z,12.57
2018-06-29T08:42:13.432Z,9.70
2018-06-29T08:44:42.093Z,11.53
2018-06-29T08:47:10.653Z,10.60
2018-06-29T08:49:39.406Z,12.20
2018-06-29T08:52:08.463Z,10.27
2018-06-29T08:54:37.157Z,12.67
2018-06-29T08:57:05.948Z,12.83
2018-06-29T08:59:34.538Z,11.93
2018-06-29T09:02:02.976Z,11.67
2018-06-29T09:04:31.556Z,11.40
2018-06-29T09:07:00.075Z,11.67
2018-06-29T09:09:28.566Z,13.00
2018-06-29T09:11:57.043Z,11.63
2018-06-29T09:14:25.596Z,11.87
2018-06-29T09:16:54.064Z,11.77
2018-06-29T09:19:23.326Z,11.30
2018-06-29T09:21:52.781Z,10.23
2018-06-29T09:24:21.386Z,11.17
2018-06-29T09:26:49.962Z,11.63
2018-06-29T09:29:18.606Z,12.23
2018-06-29T09:31:47.035Z,12.33
2018-06-29T09:34:15.544Z,11.90
2018-06-29T09:36:44.156Z,12.87
2018-06-29T09:39:13.453Z,11.90
2018-06-29T09:41:42.600Z,11.90
2018-06-29T09:44:10.931Z,12.23
2018-06-29T09:46:39.378Z,12.53
2018-06-29T09:49:07.868Z,12.30
2018-06-29T09:51:36.324Z,11.50
2018-06-29T09:54:05.624Z,11.07
2018-06-29T09:56:34.228Z,10.90
2018-06-29T09:59:02.837Z,11.93
2018-06-29T10:01:31.503Z,11.53
2018-06-29T10:04:00.037Z,10.80
2018-06-29T10:06:28.552Z,13.50
2018-06-29T10:08:57.178Z,13.33
2018-06-29T10:11:25.665Z,12.43
2018-06-29T10:13:54.233Z,13.00
2018-06-29T10:16:23.737Z,11.93
2018-06-29T10:18:52.590Z,12.43
2018-06-29T10:21:21.938Z,12.63
2018-06-29T10:23:50.420Z,11.07
2018-06-29T10:26:18.958Z,12.53
2018-06-29T10:28:47.464Z,12.07
2018-06-29T10:31:15.920Z,13.20
2018-06-29T10:33:44.429Z,12.00
2018-06-29T10:36:13.208Z,12.57
2018-06-29T10:38:41.784Z,14.73
2018-06-29T10:41:10.354Z,15.47
2018-06-29T10:43:38.923Z,15.17
2018-06-29T10:46:08.101Z,14.70
2018-06-29T10:48:36.638Z,20.07
2018-06-29T10:51:05.372Z,18.43
2018-06-29T10:53:33.922Z,17.63
2018-06-29T10:56:02.389Z,16.47
2018-06-29T10:58:30.990Z,13.47
2018-06-29T11:00:59.633Z,16.97
2018-06-29T11:03:28.106Z,14.87
2018-06-29T11:05:56.569Z,16.57
2018-06-29T11:08:25.139Z,18.47
2018-06-29T11:10:53.702Z,17.80
2018-06-29T11:13:22.756Z,16.93
2018-06-29T11:15:52.012Z,15.63
2018-06-29T11:18:21.255Z,19.07
2018-06-29T11:20:49.756Z,19.10
2018-06-29T11:23:18.293Z,18.23
2018-06-29T11:25:46.833Z,16.90
2018-06-29T11:28:15.385Z,15.67
2018-06-29T11:30:43.841Z,18.23
2018-06-29T11:33:12.356Z,16.07
2018-06-29T11:35:40.818Z,14.57
2018-06-29T11:38:09.405Z,16.77
2018-06-29T11:40:37.894Z,14.37
2018-06-29T11:43:06.819Z,15.33
2018-06-29T11:45:35.372Z,15.20
2018-06-29T11:48:03.923Z,13.60
2018-06-29T11:50:32.422Z,15.33
2018-06-29T11:53:00.946Z,14.33
2018-06-29T11:55:29.473Z,15.47
2018-06-29T11:57:57.994Z,14.17
2018-06-29T12:00:26.550Z,14.00
2018-06-29T12:02:55.148Z,13.33
2018-06-29T12:05:23.969Z,13.70
2018-06-29T12:07:53.027Z,13.57
2018-06-29T12:10:21.524Z,14.20
2018-06-29T12:12:50.025Z,13.70
2018-06-29T12:15:18.822Z,12.40
2018-06-29T12:17:47.445Z,11.77
2018-06-29T12:20:15.944Z,11.90
2018-06-29T12:22:45.275Z,11.87
2018-06-29T12:25:13.931Z,11.13
2018-06-29T12:27:43.142Z,11.23
2018-06-29T12:30:11.956Z,10.40
2018-06-29T12:32:40.520Z,10.53
2018-06-29T12:35:08.973Z,12.73
2018-06-29T12:37:37.509Z,11.17
2018-06-29T12:40:06.109Z,12.27
2018-06-29T12:42:35.026Z,11.17
2018-06-29T12:45:03.581Z,10.87
2018-06-29T12:47:32.088Z,10.53
2018-06-29T12:50:00.569Z,10.87
2018-06-29T12:52:29.164Z,11.00
2018-06-29T12:54:57.648Z,11.77
2018-06-29T12:57:26.228Z,11.03
2018-06-29T12:59:54.972Z,11.93
2018-06-29T13:02:23.657Z,10.53
2018-06-29T13:04:52.219Z,10.63
2018-06-29T13:07:20.936Z,10.60
2018-06-29T13:09:49.412Z,11.77
2018-06-29T13:12:17.966Z,10.20
2018-06-29T13:14:46.510Z,10.13
2018-06-29T13:17:16.029Z,11.37
2018-06-29T13:19:45.138Z,11.57
2018-06-29T13:22:13.888Z,11.80
2018-06-29T13:24:42.361Z,10.70
2018-06-29T13:27:11.061Z,11.27
2018-06-29T13:29:39.565Z,11.27
2018-06-29T13:32:09.166Z,11.67
2018-06-29T13:34:37.708Z,11.93
2018-06-29T13:37:06.250Z,12.10
2018-06-29T13:39:34.726Z,11.23
2018-06-29T13:42:03.265Z,11.43
2018-06-29T13:44:31.709Z,11.90
2018-06-29T13:47:00.275Z,11.40
2018-06-29T13:49:28.812Z,10.13
2018-06-29T13:51:57.276Z,10.60
2018-06-29T13:54:25.733Z,11.77
2018-06-29T13:56:54.259Z,10.40
2018-06-29T13:59:22.716Z,10.80
2018-06-29T14:01:51.257Z,11.40
2018-06-29T14:04:19.734Z,11.60
2018-06-29T14:06:48.579Z,12.17
2018-06-29T14:09:17.108Z,11.73
2018-06-29T14:11:46.539Z,10.80
2018-06-29T14:14:15.410Z,11.17
2018-06-29T14:16:44.252Z,11.27
2018-06-29T14:19:13.156Z,11.33
2018-06-29T14:21:41.725Z,11.90
2018-06-29T14:24:10.196Z,11.37
2018-06-29T14:26:38.697Z,11.47
2018-06-29T14:29:07.230Z,11.70
2018-06-29T14:31:36.127Z,10.70
2018-06-29T14:34:04.721Z,10.87
2018-06-29T14:36:33.234Z,12.33
2018-06-29T14:39:01.788Z,11.73
2018-06-29T14:41:30.610Z,11.07
2018-06-29T14:43:59.100Z,11.10
2018-06-29T14:46:27.644Z,10.93
2018-06-29T14:48:56.244Z,11.87
2018-06-29T14:51:24.702Z,11.13
2018-06-29T14:53:53.246Z,10.60
2018-06-29T14:56:21.744Z,11.20
2018-06-29T14:58:50.362Z,10.47
2018-06-29T15:01:18.887Z,11.03
2018-06-29T15:03:47.498Z,9.70
2018-06-29T15:06:15.978Z,10.00
2018-06-29T15:08:45.244Z,9.80
2018-06-29T15:11:14.050Z,10.10
2018-06-29T15:13:42.926Z,10.23
2018-06-29T15:16:11.785Z,10.53
2018-06-29T15:18:40.540Z,9.90
2018-06-29T15:21:09.006Z,9.90
2018-06-29T15:23:37.625Z,9.87
2018-06-29T15:26:06.400Z,9.67
2018-06-29T15:28:34.849Z,10.33
2018-06-29T15:31:03.359Z,9.23
2018-06-29T15:33:32.606Z,9.60
2018-06-29T15:36:01.130Z,10.57
2018-06-29T15:38:29.701Z,9.60
2018-06-29T15:40:58.168Z,9.97
2018-06-29T15:43:26.572Z,10.07
2018-06-29T15:45:55.116Z,9.53
2018-06-29T15:48:23.617Z,9.13
2018-06-29T15:50:52.100Z,9.70
2018-06-29T15:53:20.533Z,9.27
2018-06-29T15:55:49.172Z,9.03
2018-06-29T15:58:18.090Z,9.30
2018-06-29T16:00:47.625Z,9.00
2018-06-29T16:03:16.064Z,8.23
2018-06-29T16:05:45.541Z,10.33
2018-06-29T16:08:15.086Z,10.30
2018-06-29T16:10:44.173Z,9.17
2018-06-29T16:13:12.685Z,9.40
2018-06-29T16:15:41.467Z,8.97
2018-06-29T16:18:09.955Z,9.13
2018-06-29T16:20:38.448Z,9.17
2018-06-29T16:23:07.249Z,8.93
2018-06-29T16:25:35.837Z,9.10
2018-06-29T16:28:04.347Z,8.23
2018-06-29T16:30:32.853Z,8.63
2018-06-29T16:33:01.356Z,8.90
2018-06-29T16:35:30.273Z,9.43
2018-06-29T16:37:58.835Z,8.53
2018-06-29T16:40:27.733Z,9.50
2018-06-29T16:42:56.215Z,9.57
2018-06-29T16:45:24.726Z,11.10
2018-06-29T16:47:53.128Z,9.13
2018-06-29T16:50:21.710Z,10.00
2018-06-29T16:52:50.237Z,9.87
2018-06-29T16:55:18.749Z,8.90
2018-06-29T16:57:47.270Z,9.20
2018-06-29T17:00:16.417Z,9.47
2018-06-29T17:02:45.604Z,9.30
2018-06-29T17:05:14.950Z,9.97
2018-06-29T17:07:44.050Z,8.83
2018-06-29T17:10:12.630Z,8.83
2018-06-29T17:12:41.101Z,8.50
2018-06-29T17:15:10.312Z,8.53
2018-06-29T17:17:39.133Z,8.83
2018-06-29T17:20:07.645Z,8.70
2018-06-29T17:22:36.139Z,10.10
2018-06-29T17:25:04.877Z,9.13
2018-06-29T17:27:33.491Z,8.80
2018-06-29T17:30:01.991Z,8.43
2018-06-29T17:32:30.462Z,8.83
2018-06-29T17:34:59.071Z,8.90
2018-06-29T17:37:27.880Z,8.53
2018-06-29T17:39:56.389Z,8.60
2018-06-29T17:42:24.858Z,9.17
2018-06-29T17:44:53.493Z,8.20
2018-06-29T17:47:21.971Z,9.10
2018-06-29T17:49:50.643Z,8.10
2018-06-29T17:52:19.104Z,8.80
2018-06-29T17:54:47.581Z,9.00
2018-06-29T17:57:16.067Z,9.00
2018-06-29T17:59:45.659Z,9.20
2018-06-29T18:02:14.384Z,8.40
2018-06-29T18:04:43.890Z,8.93
2018-06-29T18:07:12.371Z,8.73
2018-06-29T18:09:40.961Z,8.63
2018-06-29T18:12:09.754Z,8.30
2018-06-29T18:14:38.310Z,8.93
2018-06-29T18:17:06.993Z,8.90
2018-06-29T18:19:35.529Z,8.77
2018-06-29T18:22:04.000Z,8.80
2018-06-29T18:24:32.576Z,9.50
2018-06-29T18:27:01.152Z,8.70
2018-06-29T18:29:29.688Z,9.23
2018-06-29T18:31:58.158Z,9.03
2018-06-29T18:34:26.638Z,9.77
2018-06-29T18:36:55.128Z,8.30
2018-06-29T18:39:23.901Z,8.90
2018-06-29T18:41:52.433Z,8.50
2018-06-29T18:44:21.575Z,8.53
2018-06-29T18:46:50.045Z,8.67
2018-06-29T18:49:18.531Z,8.17
2018-06-29T18:51:47.004Z,8.23
2018-06-29T18:54:15.734Z,7.83
2018-06-29T18:56:46.272Z,8.07
2018-06-29T18:59:15.201Z,8.53
2018-06-29T19:01:44.742Z,8.90
2018-06-29T19:04:14.172Z,8.30
2018-06-29T19:06:42.703Z,8.50
2018-06-29T19:09:11.515Z,8.30
2018-06-29T19:11:40.149Z,7.70
2018-06-29T19:14:08.620Z,7.93
2018-06-29T19:16:37.459Z,8.50
2018-06-29T19:19:05.889Z,7.70
2018-06-29T19:21:34.423Z,7.53
2018-06-29T19:24:02.905Z,8.30
2018-06-29T19:26:31.453Z,8.03
2018-06-29T19:28:59.944Z,7.87
2018-06-29T19:31:28.404Z,7.37
2018-06-29T19:33:56.909Z,7.93
2018-06-29T19:36:25.533Z,8.00
2018-06-29T19:38:54.122Z,7.97
2018-06-29T19:41:22.737Z,7.57
2018-06-29T19:43:51.260Z,7.60
2018-06-29T19:46:19.844Z,7.80
2018-06-29T19:48:48.346Z,7.57
2018-06-29T19:51:16.851Z,8.10
2018-06-29T19:53:45.985Z,7.83
2018-06-29T19:56:15.617Z,8.13
2018-06-29T19:58:44.217Z,7.83
2018-06-29T20:01:12.828Z,7.80
2018-06-29T20:03:41.277Z,8.40
2018-06-29T20:06:09.930Z,8.30
2018-06-29T20:08:38.421Z,7.93
2018-06-29T20:11:07.024Z,7.90
2018-06-29T20:13:35.512Z,8.53
2018-06-29T20:16:04.116Z,8.70
2018-06-29T20:18:32.632Z,8.40
2018-06-29T20:21:01.498Z,8.00
2018-06-29T20:23:29.640Z,8.43
2018-06-29T20:25:58.148Z,7.70
2018-06-29T20:28:26.787Z,7.80
2018-06-29T20:30:55.744Z,8.07
2018-06-29T20:33:24.276Z,8.50
2018-06-29T20:35:53.071Z,7.90
2018-06-29T20:38:21.689Z,8.60
2018-06-29T20:40:50.384Z,7.77
2018-06-29T20:43:18.876Z,8.30
2018-06-29T20:45:47.463Z,8.00
2018-06-29T20:48:17.004Z,7.87
2018-06-29T20:50:45.842Z,8.10
2018-06-29T20:53:14.931Z,7.90
2018-06-29T20:55:44.117Z,7.63
2018-06-29T20:58:12.631Z,7.50
2018-06-29T21:00:41.250Z,7.53
2018-06-29T21:03:09.737Z,7.80
2018-06-29T21:05:38.249Z,7.33
2018-06-29T21:08:06.868Z,7.00
2018-06-29T21:10:35.312Z,7.07
2018-06-29T21:13:03.919Z,7.10
2018-06-29T21:15:32.483Z,7.10
2018-06-29T21:18:00.966Z,7.33
2018-06-29T21:20:29.446Z,7.33
2018-06-29T21:22:57.916Z,7.67
2018-06-29T21:25:26.414Z,7.03
2018-06-29T21:27:54.894Z,7.40
2018-06-29T21:30:23.435Z,7.30
2018-06-29T21:32:51.841Z,7.30
2018-06-29T21:35:20.386Z,7.37
2018-06-29T21:37:48.838Z,7.70
2018-06-29T21:40:18.381Z,7.30
2018-06-29T21:42:47.253Z,7.30
2018-06-29T21:45:16.381Z,7.20
2018-06-29T21:47:45.761Z,7.67
2018-06-29T21:50:14.989Z,7.10
2018-06-29T21:52:44.208Z,6.80
2018-06-29T21:55:12.956Z,7.20
2018-06-29T21:57:42.076Z,7.27
2018-06-29T22:00:12.492Z,7.23
2018-06-29T22:02:41.276Z,6.47
2018-06-29T22:05:10.720Z,7.17
2018-06-29T22:07:39.753Z,6.63
2018-06-29T22:10:09.505Z,7.13
2018-06-29T22:12:38.306Z,6.83
2018-06-29T22:15:11.061Z,7.40
2018-06-29T22:17:39.531Z,7.90
2018-06-29T22:20:08.074Z,7.40
2018-06-29T22:22:36.538Z,7.40
2018-06-29T22:25:05.934Z,7.90
2018-06-29T22:27:34.369Z,7.60
2018-06-29T22:30:03.226Z,7.73
2018-06-29T22:32:31.756Z,8.23
2018-06-29T22:35:00.215Z,7.77
2018-06-29T22:37:28.805Z,8.03
2018-06-29T22:39:57.294Z,7.57
2018-06-29T22:42:25.828Z,7.63
2018-06-29T22:44:54.074Z,7.40
2018-06-29T22:47:22.560Z,7.53
2018-06-29T22:49:51.078Z,7.17
2018-06-29T22:52:19.610Z,6.93
2018-06-29T22:54:48.102Z,7.47
2018-06-29T22:57:16.858Z,7.37
2018-06-29T22:59:46.183Z,7.67
2018-06-29T23:02:14.616Z,7.93
2018-06-29T23:04:43.333Z,7.77
2018-06-29T23:07:11.851Z,7.50
2018-06-29T23:09:40.451Z,7.50
2018-06-29T23:12:09.059Z,7.27
2018-06-29T23:14:37.530Z,7.40
2018-06-29T23:17:06.149Z,7.00
2018-06-29T23:19:34.724Z,6.97
2018-06-29T23:22:03.290Z,6.63
2018-06-29T23:24:31.738Z,7.00
2018-06-29T23:27:00.265Z,6.80
2018-06-29T23:29:28.725Z,6.60
2018-06-29T23:31:57.544Z,6.70
2018-06-29T23:34:25.950Z,6.73
2018-06-29T23:36:55.209Z,7.07
2018-06-29T23:39:23.740Z,6.43
2018-06-29T23:41:52.304Z,6.90
2018-06-29T23:44:20.708Z,6.43
2018-06-29T23:46:49.290Z,7.17
2018-06-29T23:49:17.723Z,6.67
2018-06-29T23:51:46.409Z,6.80
2018-06-29T23:54:15.376Z,6.30
2018-06-29T23:56:44.346Z,7.17
2018-06-29T23:59:12.748Z,6.50
